Terminal Aerodrome Forecast
Issued by NWS

Home | Current Version | Previous Version | Text Only | Print | Product List | Glossary On
Versions: 1 2 3 4 5 6 7 8 9 10 11 12 13 14 15 16 17
000
FTUS43 KGRR 301514 AAA
TAFLAN
TAF AMD
KLAN 301514Z 3015/0112 VRB03KT P6SM VCSH SCT023 OVC060
     FM301600 19009KT P6SM VCTS BKN025CB OVC060
     FM301800 28011KT P6SM VCTS BKN035CB
     FM010200 31008KT P6SM BKN025
     FM010800 31005KT P6SM BKN015=

USA.gov is the U.S. government's official web portal to all federal, state and local government web resources and services.